Time;durP1;ratioP1;P1;durP2;ratioP2;P2;SDS_P1;SDS_P2;PMS_P1;PMS_P2;Temp;Humidity;BMP_temperature;BMP_pressure;BME280_temperature;BME280_humidity;BME280_pressure;Samples;Min_cycle;Max_cycle;Signal;HPM_P1;HPM_P2
2021/12/16 00:31:29;;;;;;;26.95;14.68;;;8.40;99.90;;;;;;5005892;28;20140;-63
2021/12/16 00:34:01;;;;;;;24.20;14.80;;;8.40;99.90;;;;;;5001714;28;20026;-63
2021/12/16 00:36:33;;;;;;;23.58;14.27;;;8.40;99.90;;;;;;5005876;28;20032;-63
2021/12/16 00:39:01;;;;;;;24.30;15.60;;;8.30;99.90;;;;;;5006037;28;20034;-63
2021/12/16 00:41:27;;;;;;;21.58;13.25;;;8.30;99.90;;;;;;5002352;28;20040;-63
2021/12/16 00:45:01;;;;;;;;;;;8.30;99.90;;;;;;5007680;28;20398;-63
2021/12/16 00:46:59;;;;;;;26.63;13.95;;;8.30;99.90;;;;;;4991693;28;19961;-63
2021/12/16 00:54:43;;;;;;;23.00;13.75;;;8.30;99.90;;;;;;5005096;28;20157;-63
2021/12/16 00:57:13;;;;;;;27.02;15.68;;;8.30;99.90;;;;;;4999915;28;20156;-61
2021/12/16 00:59:43;;;;;;;27.45;15.70;;;8.40;99.90;;;;;;5004986;28;20022;-61
2021/12/16 01:02:27;;;;;;;27.20;17.58;;;8.40;99.90;;;;;;4987585;28;20223;-61
2021/12/16 01:07:57;;;;;;;26.60;14.98;;;8.30;99.90;;;;;;5001573;28;20061;-61
2021/12/16 01:35:28;;;;;;;29.25;16.67;;;7.80;99.90;;;;;;5005883;28;20298;-61
2021/12/16 01:46:33;;;;;;;29.80;17.10;;;7.70;99.90;;;;;;5001405;28;20036;-61
2021/12/16 01:49:32;;;;;;;30.17;17.40;;;7.60;99.90;;;;;;5003466;28;20072;-61
2021/12/16 01:59:36;;;;;;;29.33;16.73;;;7.50;99.90;;;;;;5005375;28;20109;-60
2021/12/16 02:02:14;;;;;;;28.75;17.92;;;7.50;99.90;;;;;;5000459;28;20033;-61
2021/12/16 02:07:54;;;;;;;31.25;17.98;;;7.50;99.90;;;;;;4952826;28;20053;-60
2021/12/16 02:10:25;;;;;;;31.08;18.65;;;7.60;99.90;;;;;;4999021;28;20036;-60
2021/12/16 02:37:23;;;;;;;38.05;20.80;;;7.80;99.90;;;;;;4993715;28;20049;-61
2021/12/16 02:39:49;;;;;;;40.58;23.63;;;7.90;99.90;;;;;;5000614;28;20037;-60
2021/12/16 02:42:21;;;;;;;44.20;23.75;;;7.90;99.90;;;;;;5000524;28;20030;-61
2021/12/16 02:48:29;;;;;;;37.15;21.20;;;7.90;99.90;;;;;;5001711;28;20045;-60
2021/12/16 02:50:25;;;;;;;35.65;20.52;;;7.80;99.90;;;;;;4998859;28;20501;-61
2021/12/16 02:52:51;;;;;;;41.90;21.10;;;7.80;99.90;;;;;;5000541;28;20030;-61
2021/12/16 02:55:18;;;;;;;;;;;7.80;99.90;;;;;;5002679;28;20044;-61
2021/12/16 02:57:49;;;;;;;35.17;19.98;;;7.70;99.90;;;;;;5004863;28;19913;-61
2021/12/16 03:00:17;;;;;;;34.95;20.15;;;7.70;99.90;;;;;;5002490;28;20054;-61
2021/12/16 03:02:46;;;;;;;36.53;20.13;;;7.60;99.90;;;;;;5001743;28;20034;-61
2021/12/16 03:05:12;;;;;;;31.95;19.42;;;7.60;99.90;;;;;;4999510;28;20029;-61
2021/12/16 03:07:38;;;;;;;39.72;21.70;;;7.60;99.90;;;;;;5003216;28;20033;-61
2021/12/16 03:18:06;;;;;;;37.38;19.95;;;7.70;99.90;;;;;;5007164;28;20052;-61
2021/12/16 03:20:41;;;;;;;36.78;21.20;;;7.70;99.90;;;;;;5004548;28;20534;-61
2021/12/16 03:28:48;;;;;;;41.67;22.35;;;7.70;99.90;;;;;;5006112;28;20479;-61
2021/12/16 03:38:49;;;;;;;;;;;7.80;99.90;;;;;;5001787;28;20034;-61
2021/12/16 03:41:16;;;;;;;37.63;18.23;;;7.90;99.90;;;;;;5006452;28;19913;-61
2021/12/16 03:43:41;;;;;;;;;;;7.90;99.90;;;;;;5007985;28;20033;-61
2021/12/16 03:48:45;;;;;;;34.78;19.17;;;7.90;99.90;;;;;;5004530;28;20034;-61
2021/12/16 03:51:16;;;;;;;36.10;20.83;;;7.90;99.90;;;;;;5006718;28;20021;-61
2021/12/16 03:53:43;;;;;;;32.28;20.48;;;8.00;99.90;;;;;;5003319;28;20026;-61
2021/12/16 03:56:10;;;;;;;33.88;19.92;;;8.00;99.90;;;;;;5006330;28;20119;-61
2021/12/16 03:58:37;;;;;;;34.95;20.70;;;8.00;99.90;;;;;;5006404;28;20022;-61
2021/12/16 04:01:07;;;;;;;35.10;19.10;;;8.00;99.90;;;;;;5003931;28;20076;-61
2021/12/16 04:03:33;;;;;;;37.50;20.17;;;8.10;99.90;;;;;;4986641;28;20050;-61
2021/12/16 04:05:59;;;;;;;;;;;8.10;99.90;;;;;;5005115;28;20437;-63
2021/12/16 04:08:24;;;;;;;34.92;18.42;;;8.10;99.90;;;;;;5002099;28;19913;-63
2021/12/16 04:11:04;;;;;;;37.13;19.73;;;8.10;99.90;;;;;;5005446;28;20042;-63
2021/12/16 04:13:31;;;;;;;28.38;17.63;;;8.10;99.90;;;;;;5004631;28;20436;-63
2021/12/16 04:15:56;;;;;;;37.50;19.33;;;8.10;99.90;;;;;;5007031;28;20018;-63
2021/12/16 04:18:22;;;;;;;;;;;8.10;99.90;;;;;;4990278;28;20026;-63
2021/12/16 04:20:48;;;;;;;33.10;16.85;;;8.10;99.90;;;;;;5002683;28;19909;-63
2021/12/16 04:23:14;;;;;;;35.15;19.98;;;8.20;99.90;;;;;;5005677;28;20076;-63
2021/12/16 04:25:42;;;;;;;;;;;8.20;99.90;;;;;;5003020;28;20013;-63
2021/12/16 04:28:14;;;;;;;33.75;19.20;;;8.20;99.90;;;;;;5004572;28;20374;-63
2021/12/16 04:30:41;;;;;;;30.88;18.00;;;8.20;99.90;;;;;;5003485;28;20037;-63
2021/12/16 04:33:06;;;;;;;36.10;19.27;;;8.30;99.90;;;;;;5003252;28;20116;-63
2021/12/16 04:35:32;;;;;;;;;;;8.30;99.90;;;;;;5005597;28;20463;-63
2021/12/16 04:37:58;;;;;;;30.55;18.27;;;8.30;99.90;;;;;;5006311;28;19909;-63
2021/12/16 04:40:26;;;;;;;;;;;8.30;99.90;;;;;;5002977;28;20577;-63
2021/12/16 04:42:58;;;;;;;31.27;16.88;;;8.30;99.90;;;;;;5004458;28;19913;-63
2021/12/16 04:45:24;;;;;;;35.45;18.60;;;8.30;99.90;;;;;;5006944;28;20026;-63
2021/12/16 04:47:50;;;;;;;;;;;8.30;99.90;;;;;;5005268;28;20475;-62
2021/12/16 04:50:16;;;;;;;31.70;17.65;;;8.30;99.90;;;;;;5004328;28;19964;-63
2021/12/16 04:52:42;;;;;;;;;;;8.30;99.90;;;;;;4999905;28;20089;-63
2021/12/16 04:55:09;;;;;;;30.95;16.92;;;8.30;99.90;;;;;;5001661;28;20353;-63
2021/12/16 04:57:34;;;;;;;34.90;20.27;;;8.40;99.90;;;;;;5005613;28;20113;-63
2021/12/16 05:00:00;;;;;;;;;;;8.40;99.90;;;;;;5004428;28;20036;-63
2021/12/16 05:02:26;;;;;;;34.97;18.80;;;8.40;99.90;;;;;;5000742;28;20000;-63
2021/12/16 05:04:52;;;;;;;31.42;19.33;;;8.40;99.90;;;;;;4999799;28;20490;-63
2021/12/16 05:07:18;;;;;;;;;;;8.40;99.90;;;;;;5002310;28;20111;-62
2021/12/16 05:12:32;;;;;;;41.83;19.92;;;8.50;99.90;;;;;;5000955;28;20041;-63
2021/12/16 05:14:57;;;;;;;30.50;17.60;;;8.40;99.90;;;;;;5002636;28;20025;-63
2021/12/16 05:17:31;;;;;;;;;;;8.40;99.90;;;;;;5006201;28;20029;-63
2021/12/16 05:20:00;;;;;;;31.40;18.25;;;8.40;99.90;;;;;;5004852;28;20012;-63
2021/12/16 05:25:21;;;;;;;29.02;17.50;;;8.50;99.90;;;;;;5003417;28;20496;-63
2021/12/16 05:27:47;;;;;;;;;;;8.50;99.90;;;;;;5001510;28;20048;-62
2021/12/16 05:30:13;;;;;;;41.65;19.02;;;8.50;99.90;;;;;;5002548;28;20358;-63
2021/12/16 05:32:45;;;;;;;31.90;18.95;;;8.50;99.90;;;;;;5004500;28;20034;-63
2021/12/16 05:35:11;;;;;;;34.83;20.00;;;8.50;99.90;;;;;;5006824;28;20053;-63
2021/12/16 05:37:36;;;;;;;33.92;19.08;;;8.50;99.90;;;;;;5005818;28;20034;-63
2021/12/16 05:40:03;;;;;;;;;;;8.40;99.90;;;;;;5003459;28;20053;-63
2021/12/16 05:42:28;;;;;;;37.28;21.35;;;8.40;99.90;;;;;;5004586;28;19915;-63
2021/12/16 05:44:54;;;;;;;;;;;8.40;99.90;;;;;;4989257;28;20038;-63
2021/12/16 05:47:19;;;;;;;34.75;20.98;;;8.40;99.90;;;;;;5004964;28;20317;-62
2021/12/16 05:49:45;;;;;;;;;;;8.40;99.90;;;;;;5053116;22;20049;-61
2021/12/16 05:52:10;;;;;;;35.83;20.13;;;8.30;99.90;;;;;;5054613;28;20003;-63
2021/12/16 05:54:36;;;;;;;;;;;8.30;99.90;;;;;;5045676;28;20523;-62
2021/12/16 05:57:02;;;;;;;43.60;22.88;;;8.30;99.90;;;;;;5045250;28;20058;-62
2021/12/16 05:59:28;;;;;;;40.88;21.55;;;8.30;99.90;;;;;;5045508;28;20079;-62
2021/12/16 06:01:53;;;;;;;;;;;8.30;99.90;;;;;;5044432;28;20445;-61
2021/12/16 06:04:20;;;;;;;41.05;21.08;;;8.30;99.90;;;;;;5044457;28;20435;-62
2021/12/16 06:06:46;;;;;;;38.22;21.77;;;8.30;99.90;;;;;;5048649;28;20152;-62
2021/12/16 06:09:11;;;;;;;;;;;8.30;99.90;;;;;;5031260;28;20108;-62
2021/12/16 06:11:41;;;;;;;42.85;21.25;;;8.30;99.90;;;;;;5045206;28;20120;-62
2021/12/16 06:14:20;;;;;;;43.20;22.83;;;8.30;99.90;;;;;;5053719;28;20045;-62
2021/12/16 06:22:48;;;;;;;43.83;24.20;;;8.30;99.90;;;;;;5044971;28;20409;-62
2021/12/16 06:28:05;;;;;;;49.53;24.52;;;8.30;99.90;;;;;;5050154;28;20063;-62
2021/12/16 06:30:41;;;;;;;46.63;24.83;;;8.30;99.90;;;;;;5043743;28;20505;-62
2021/12/16 06:33:10;;;;;;;47.72;21.73;;;8.30;99.90;;;;;;5044838;28;20487;-61
2021/12/16 06:35:36;;;;;;;48.63;26.52;;;8.30;99.90;;;;;;5050017;28;20170;-62
2021/12/16 06:38:03;;;;;;;;;;;8.40;99.90;;;;;;5052775;28;20489;-62
2021/12/16 06:40:28;;;;;;;50.30;26.85;;;8.30;99.90;;;;;;5049147;28;20019;-61
2021/12/16 06:42:56;;;;;;;;;;;8.30;99.90;;;;;;5043760;28;20119;-61
2021/12/16 06:45:27;;;;;;;47.72;25.08;;;8.30;99.90;;;;;;5045157;28;19909;-61
2021/12/16 06:48:20;;;;;;;44.25;23.95;;;8.30;99.90;;;;;;5055252;28;20041;-61
2021/12/16 06:53:09;;;;;;;42.40;23.35;;;8.30;99.90;;;;;;5058520;28;20071;-61
2021/12/16 06:55:45;;;;;;;52.28;24.63;;;8.30;99.90;;;;;;5051369;28;20795;-61
2021/12/16 06:58:19;;;;;;;44.60;24.17;;;8.30;99.90;;;;;;5047344;28;20118;-61
2021/12/16 07:00:48;;;;;;;47.13;25.35;;;8.30;99.90;;;;;;5049079;28;20433;-62
2021/12/16 07:03:23;;;;;;;54.72;28.00;;;8.30;99.90;;;;;;5053786;28;20021;-61
2021/12/16 07:05:54;;;;;;;49.08;25.90;;;8.40;99.90;;;;;;5028918;28;20411;-61
2021/12/16 07:08:22;;;;;;;51.15;24.27;;;8.40;99.90;;;;;;5053197;28;20021;-61
2021/12/16 07:10:51;;;;;;;48.53;26.02;;;8.40;99.90;;;;;;5042584;28;20036;-61
2021/12/16 07:13:20;;;;;;;44.90;25.75;;;8.40;99.90;;;;;;5048311;28;20494;-61
2021/12/16 07:15:48;;;;;;;42.42;25.05;;;8.40;99.90;;;;;;5047774;28;20397;-61
2021/12/16 07:18:15;;;;;;;60.60;30.08;;;8.40;99.90;;;;;;5047191;28;20021;-61
2021/12/16 07:20:41;;;;;;;50.30;26.63;;;8.40;99.90;;;;;;5048087;28;20114;-61
2021/12/16 07:23:09;;;;;;;56.13;27.77;;;8.40;99.90;;;;;;5047927;28;20440;-61
2021/12/16 07:25:35;;;;;;;54.50;27.17;;;8.40;99.90;;;;;;5050704;28;20162;-62
2021/12/16 07:28:04;;;;;;;;;;;8.40;99.90;;;;;;5049217;28;20044;-61
2021/12/16 07:30:30;;;;;;;49.65;25.08;;;8.50;99.90;;;;;;5047071;28;19919;-62
2021/12/16 07:32:55;;;;;;;47.83;25.88;;;8.50;99.90;;;;;;5057590;28;20016;-61
2021/12/16 07:35:22;;;;;;;;;;;8.50;99.90;;;;;;5057012;28;20031;-61
2021/12/16 07:37:49;;;;;;;53.53;26.85;;;8.50;99.90;;;;;;5055003;28;19917;-62
2021/12/16 07:40:19;;;;;;;53.22;28.02;;;8.50;99.90;;;;;;5057095;28;20672;-62
2021/12/16 07:43:00;;;;;;;52.17;26.63;;;8.50;99.90;;;;;;5046762;28;20071;-62
2021/12/16 07:45:27;;;;;;;55.00;27.35;;;8.50;99.90;;;;;;5046415;28;20057;-62
2021/12/16 07:47:53;;;;;;;57.58;29.08;;;8.50;99.90;;;;;;5050295;28;20363;-61
2021/12/16 07:50:19;;;;;;;;;;;8.50;99.90;;;;;;5047369;28;20501;-62
2021/12/16 07:52:45;;;;;;;52.45;25.55;;;8.50;99.90;;;;;;5045586;28;19916;-62
2021/12/16 07:55:11;;;;;;;;;;;8.50;99.90;;;;;;5047436;28;20021;-62
2021/12/16 07:57:37;;;;;;;55.95;26.35;;;8.60;99.90;;;;;;5045815;28;19959;-61
2021/12/16 08:00:12;;;;;;;62.35;28.77;;;8.60;99.90;;;;;;5046827;28;20187;-62
2021/12/16 08:02:38;;;;;;;57.47;27.52;;;8.60;99.90;;;;;;5045333;28;20127;-61
2021/12/16 08:05:04;;;;;;;;;;;8.60;99.90;;;;;;5045320;28;20665;-62
2021/12/16 08:07:30;;;;;;;51.72;26.98;;;8.60;99.90;;;;;;5046572;28;20012;-62
2021/12/16 08:09:56;;;;;;;;;;;8.60;99.90;;;;;;5054200;28;20033;-62
2021/12/16 08:12:21;;;;;;;47.55;25.92;;;8.60;99.90;;;;;;5042676;28;19939;-61
2021/12/16 08:14:47;;;;;;;;;;;8.60;99.90;;;;;;5049410;28;20025;-61
2021/12/16 08:17:14;;;;;;;60.20;29.23;;;8.70;99.90;;;;;;5044860;28;20527;-62
2021/12/16 08:19:39;;;;;;;53.97;27.80;;;8.60;99.90;;;;;;5046321;28;20029;-61
2021/12/16 08:22:05;;;;;;;;;;;8.60;99.90;;;;;;5045961;28;20025;-61
2021/12/16 08:24:31;;;;;;;60.22;28.48;;;8.60;99.90;;;;;;5049989;28;20281;-61
2021/12/16 08:26:56;;;;;;;;;;;8.70;99.90;;;;;;5047602;28;20496;-61
2021/12/16 08:29:24;;;;;;;66.53;29.08;;;8.70;99.90;;;;;;5045137;28;19923;-61
2021/12/16 08:31:51;;;;;;;56.90;29.75;;;8.70;99.90;;;;;;5044304;28;20354;-61
2021/12/16 08:34:17;;;;;;;65.47;30.38;;;8.70;99.90;;;;;;5052280;28;20078;-61
2021/12/16 08:36:44;;;;;;;65.25;28.83;;;8.70;99.90;;;;;;5055422;28;20503;-61
2021/12/16 08:39:11;;;;;;;65.15;30.58;;;8.70;99.90;;;;;;5055505;28;20469;-61
2021/12/16 08:41:43;;;;;;;60.17;30.42;;;8.70;99.90;;;;;;5053168;28;20039;-61
2021/12/16 08:44:10;;;;;;;61.33;31.67;;;8.80;99.90;;;;;;5046503;28;20051;-61
2021/12/16 08:46:38;;;;;;;61.05;30.17;;;8.80;99.90;;;;;;5046361;28;20445;-60
2021/12/16 08:49:04;;;;;;;59.08;31.25;;;8.80;99.90;;;;;;5052427;28;20021;-61
2021/12/16 08:51:33;;;;;;;;;;;8.80;99.90;;;;;;5044140;28;20039;-61
2021/12/16 08:53:59;;;;;;;57.92;29.38;;;8.80;99.90;;;;;;5046464;28;19904;-61
2021/12/16 08:56:27;;;;;;;;;;;9.20;99.90;;;;;;5045318;28;20033;-61
2021/12/16 08:58:56;;;;;;;57.20;27.50;;;9.20;99.90;;;;;;5046001;28;19940;-61
2021/12/16 09:01:25;;;;;;;66.65;30.23;;;9.20;99.90;;;;;;5045304;28;20063;-61
2021/12/16 09:03:52;;;;;;;66.45;30.17;;;9.10;99.90;;;;;;5050235;28;20485;-61
2021/12/16 09:06:18;;;;;;;55.85;28.77;;;9.10;99.90;;;;;;5043458;28;20040;-61
2021/12/16 09:08:43;;;;;;;;;;;9.00;99.90;;;;;;5048946;28;20386;-62
2021/12/16 09:11:13;;;;;;;55.97;30.13;;;9.00;99.90;;;;;;5045715;28;19909;-62
2021/12/16 09:13:41;;;;;;;61.25;29.42;;;8.90;99.90;;;;;;5049842;28;20076;-62
2021/12/16 09:16:13;;;;;;;69.75;32.33;;;8.90;99.90;;;;;;5039497;28;20025;-62
2021/12/16 09:18:41;;;;;;;55.45;29.30;;;8.90;99.90;;;;;;5037863;28;20513;-61
2021/12/16 09:21:11;;;;;;;61.83;30.75;;;8.90;99.90;;;;;;5038374;28;20108;-61
2021/12/16 09:23:37;;;;;;;66.32;32.35;;;8.90;99.90;;;;;;5043739;28;20025;-62
2021/12/16 09:26:03;;;;;;;;;;;8.90;99.90;;;;;;5045482;28;20021;-61
2021/12/16 09:28:29;;;;;;;64.90;32.40;;;8.90;99.90;;;;;;5047062;28;19924;-62
2021/12/16 09:30:54;;;;;;;;;;;8.90;99.90;;;;;;5046327;28;20021;-62
2021/12/16 09:33:22;;;;;;;58.60;28.55;;;8.90;99.90;;;;;;5046410;28;19995;-61
2021/12/16 09:35:52;;;;;;;64.43;32.95;;;8.90;99.90;;;;;;5048815;28;20104;-61
2021/12/16 09:38:19;;;;;;;60.28;32.60;;;8.90;99.90;;;;;;5044349;28;20107;-62
2021/12/16 09:40:51;;;;;;;72.72;32.72;;;9.00;99.90;;;;;;5050742;28;20048;-61
2021/12/16 09:43:22;;;;;;;65.20;31.13;;;9.00;99.90;;;;;;5043538;28;20386;-61
2021/12/16 09:45:48;;;;;;;67.50;31.23;;;9.00;99.90;;;;;;5046261;28;20099;-61
2021/12/16 09:48:14;;;;;;;;;;;9.00;99.90;;;;;;5046968;28;20017;-61
2021/12/16 09:50:39;;;;;;;52.30;27.45;;;9.00;99.90;;;;;;5047600;28;20406;-61
2021/12/16 09:53:06;;;;;;;60.78;31.13;;;9.10;99.90;;;;;;5048892;28;20055;-61
2021/12/16 09:55:34;;;;;;;;;;;9.10;99.90;;;;;;5045517;28;20032;-61
2021/12/16 09:58:00;;;;;;;;;;;9.10;99.90;;;;;;5045899;28;19962;-61
2021/12/16 10:00:28;;;;;;;57.70;28.23;;;9.10;99.90;;;;;;5042436;28;19915;-61
2021/12/16 10:02:56;;;;;;;59.50;27.58;;;9.10;99.90;;;;;;5045115;28;20025;-61
2021/12/16 10:05:22;;;;;;;56.47;29.13;;;9.20;99.90;;;;;;5050863;28;20033;-61
2021/12/16 10:07:48;;;;;;;62.80;30.40;;;9.20;99.90;;;;;;5052370;28;20037;-61
2021/12/16 10:10:17;;;;;;;;;;;9.20;99.90;;;;;;5050879;28;20557;-61
2021/12/16 10:12:45;;;;;;;48.55;26.33;;;9.20;99.90;;;;;;5051235;28;20376;-61
2021/12/16 10:18:05;;;;;;;50.40;26.50;;;9.20;99.90;;;;;;5044270;28;20037;-61
2021/12/16 10:20:34;;;;;;;49.13;25.77;;;9.20;99.90;;;;;;5044971;28;20095;-61
2021/12/16 10:23:12;;;;;;;47.30;26.08;;;9.20;99.90;;;;;;5042286;28;20100;-61
2021/12/16 10:25:45;;;;;;;50.53;25.77;;;9.30;99.90;;;;;;5045198;28;20029;-61
2021/12/16 10:28:20;;;;;;;47.50;25.85;;;9.30;99.90;;;;;;5049055;28;20113;-61
2021/12/16 10:30:52;;;;;;;46.33;25.60;;;9.30;99.90;;;;;;5044713;28;20036;-62
2021/12/16 10:33:17;;;;;;;46.08;23.63;;;9.30;99.90;;;;;;5043991;28;20021;-61
2021/12/16 10:35:47;;;;;;;;;;;9.30;99.90;;;;;;5043171;28;20025;-61
2021/12/16 10:38:15;;;;;;;43.45;23.00;;;9.30;99.90;;;;;;5047597;28;19908;-61
2021/12/16 10:40:49;;;;;;;46.17;23.50;;;9.40;99.90;;;;;;5044348;28;20424;-62
2021/12/16 10:43:27;;;;;;;47.50;24.75;;;9.30;99.90;;;;;;5044239;28;20029;-61
2021/12/16 10:46:04;;;;;;;51.45;27.00;;;9.30;99.90;;;;;;5053338;28;20056;-62
2021/12/16 10:48:36;;;;;;;45.25;25.13;;;9.30;99.90;;;;;;5042241;28;20025;-62
2021/12/16 10:51:05;;;;;;;43.63;23.35;;;9.30;99.90;;;;;;5044301;28;20033;-62
2021/12/16 10:54:03;;;;;;;43.75;24.85;;;9.30;99.90;;;;;;5045657;28;20496;-61
2021/12/16 10:56:55;;;;;;;48.85;26.05;;;9.30;99.90;;;;;;5045981;28;20041;-62
2021/12/16 10:59:54;;;;;;;39.13;22.70;;;9.30;99.90;;;;;;5035495;28;20040;-62
2021/12/16 11:02:49;;;;;;;39.35;22.60;;;9.30;99.90;;;;;;5043765;28;20033;-62
2021/12/16 11:05:22;;;;;;;40.80;22.08;;;9.40;99.90;;;;;;5032423;28;20075;-61
2021/12/16 11:07:58;;;;;;;41.42;23.80;;;9.40;99.90;;;;;;5043417;28;20037;-61
2021/12/16 11:10:28;;;;;;;39.03;23.15;;;9.40;99.90;;;;;;5044588;28;20468;-62
2021/12/16 11:13:10;;;;;;;39.95;21.55;;;9.40;99.90;;;;;;5047461;28;20746;-62
2021/12/16 11:15:37;;;;;;;41.80;21.58;;;9.50;99.90;;;;;;5048563;28;20033;-61
2021/12/16 11:18:20;;;;;;;42.13;21.80;;;9.50;99.90;;;;;;5054881;28;20021;-61
2021/12/16 11:20:57;;;;;;;46.65;24.33;;;9.40;99.90;;;;;;5048586;28;20049;-61
2021/12/16 11:23:26;;;;;;;41.95;21.35;;;9.40;99.90;;;;;;5048104;28;20021;-61
2021/12/16 11:25:58;;;;;;;44.50;21.80;;;9.40;99.90;;;;;;5049406;28;20024;-61
2021/12/16 11:28:31;;;;;;;38.88;22.75;;;9.40;99.90;;;;;;5050239;28;20041;-60
2021/12/16 11:31:12;;;;;;;39.42;20.83;;;9.40;99.90;;;;;;5046267;28;20018;-61
2021/12/16 11:34:00;;;;;;;35.33;19.33;;;9.40;99.90;;;;;;5047826;28;20020;-61
2021/12/16 11:36:33;;;;;;;32.78;19.23;;;9.40;99.90;;;;;;5048986;28;20033;-61
2021/12/16 11:39:07;;;;;;;35.00;20.05;;;9.50;99.90;;;;;;5044708;28;20063;-61
2021/12/16 11:41:40;;;;;;;34.13;19.27;;;9.50;99.90;;;;;;5047332;28;20059;-61
2021/12/16 11:44:11;;;;;;;34.60;19.10;;;9.50;99.90;;;;;;5046876;28;20103;-61
2021/12/16 11:46:42;;;;;;;32.08;18.88;;;9.60;99.90;;;;;;5045822;28;20435;-61
2021/12/16 11:49:30;;;;;;;38.38;18.65;;;9.60;99.90;;;;;;5050321;28;20063;-61
2021/12/16 11:52:11;;;;;;;34.17;17.70;;;9.60;99.90;;;;;;5053105;28;20116;-61
2021/12/16 11:54:46;;;;;;;31.23;16.50;;;9.60;99.90;;;;;;5056918;28;20013;-61
2021/12/16 11:57:24;;;;;;;30.17;17.08;;;9.60;99.90;;;;;;5056420;28;20026;-61
2021/12/16 11:59:50;;;;;;;32.67;17.35;;;9.60;99.90;;;;;;5056670;28;20043;-61
2021/12/16 12:02:31;;;;;;;;;;;9.50;99.90;;;;;;5057749;28;20033;-61
2021/12/16 12:05:37;;;;;;;20.73;12.68;;;9.50;99.90;;;;;;5057509;28;19920;-61
2021/12/16 12:08:22;;;;;;;26.77;13.85;;;9.60;99.90;;;;;;5047361;28;20102;-61
2021/12/16 12:10:51;;;;;;;25.42;15.32;;;9.50;99.90;;;;;;5055863;28;20021;-61
2021/12/16 12:13:21;;;;;;;23.10;13.77;;;9.60;99.90;;;;;;5051508;28;20414;-61
2021/12/16 12:16:09;;;;;;;26.08;15.20;;;9.60;99.90;;;;;;5052085;28;20750;-61
2021/12/16 12:18:55;;;;;;;28.60;14.98;;;9.50;99.90;;;;;;5055987;28;20020;-61
2021/12/16 12:21:29;;;;;;;30.25;13.82;;;9.60;99.90;;;;;;5054812;28;20055;-61
2021/12/16 12:24:09;;;;;;;28.67;15.25;;;9.50;99.90;;;;;;5057703;28;20033;-61
2021/12/16 12:26:42;;;;;;;23.20;13.68;;;9.50;99.90;;;;;;5052678;28;20029;-61
2021/12/16 12:29:32;;;;;;;23.40;11.82;;;9.50;99.90;;;;;;5058712;28;20448;-61
2021/12/16 12:32:05;;;;;;;22.00;13.00;;;9.50;99.90;;;;;;5044075;28;20052;-61
2021/12/16 12:34:33;;;;;;;24.08;12.75;;;9.50;99.90;;;;;;5053827;28;20025;-60
2021/12/16 12:37:02;;;;;;;34.38;13.57;;;9.40;99.90;;;;;;5057890;28;20081;-61
2021/12/16 12:39:33;;;;;;;19.27;11.23;;;9.40;99.90;;;;;;5056703;28;20041;-61
2021/12/16 12:41:59;;;;;;;19.98;12.25;;;9.40;99.90;;;;;;5056866;28;20024;-61
2021/12/16 12:44:24;;;;;;;;;;;9.40;99.90;;;;;;5057600;28;20029;-61
2021/12/16 12:46:51;;;;;;;21.33;10.90;;;9.40;99.90;;;;;;5051548;28;20427;-61
2021/12/16 12:49:25;;;;;;;22.58;11.15;;;9.40;99.90;;;;;;5053202;28;20036;-61
2021/12/16 12:51:52;;;;;;;21.38;10.27;;;9.40;99.90;;;;;;5053443;28;20032;-60
2021/12/16 12:54:30;;;;;;;19.15;10.68;;;9.40;99.90;;;;;;5052000;28;20040;-61
2021/12/16 12:57:00;;;;;;;18.38;10.02;;;9.40;99.90;;;;;;5050470;28;20493;-61
2021/12/16 12:59:36;;;;;;;19.10;10.70;;;9.40;99.90;;;;;;5060424;28;20029;-62
2021/12/16 13:02:13;;;;;;;;;;;9.40;99.90;;;;;;5037408;28;20032;-61
2021/12/16 13:04:53;;;;;;;19.33;11.82;;;9.50;99.90;;;;;;5057379;28;19913;-61
2021/12/16 13:07:29;;;;;;;18.17;10.50;;;9.40;99.90;;;;;;5053870;28;20074;-61
2021/12/16 13:09:55;;;;;;;17.48;10.70;;;9.40;99.90;;;;;;5056357;28;20509;-61
2021/12/16 13:12:40;;;;;;;;;;;9.40;99.90;;;;;;5058410;28;20072;-61
2021/12/16 13:23:56;;;;;;;19.42;10.23;;;9.40;99.90;;;;;;5057332;28;20044;-61
2021/12/16 13:26:45;;;;;;;17.48;11.35;;;9.40;99.90;;;;;;5054311;28;20086;-60
2021/12/16 13:29:27;;;;;;;21.38;11.38;;;9.40;99.90;;;;;;5057049;28;20099;-61
2021/12/16 13:32:13;;;;;;;21.80;12.23;;;9.40;99.90;;;;;;5055588;28;20025;-61
2021/12/16 13:35:05;;;;;;;21.17;10.68;;;9.40;99.90;;;;;;5056480;28;20028;-61
2021/12/16 13:37:37;;;;;;;19.48;12.10;;;9.30;99.90;;;;;;5052969;28;20378;-61
2021/12/16 13:40:21;;;;;;;20.30;10.48;;;9.30;99.90;;;;;;5050507;28;20021;-61
2021/12/16 13:42:55;;;;;;;22.15;11.50;;;9.30;99.90;;;;;;5034703;28;20032;-62
2021/12/16 13:45:36;;;;;;;19.05;9.48;;;9.30;99.90;;;;;;5053087;28;20393;-61
2021/12/16 14:02:09;;;;;;;21.02;10.77;;;9.30;99.90;;;;;;5047866;28;20028;-61
2021/12/16 14:07:25;;;;;;;17.80;10.52;;;9.30;99.90;;;;;;5046003;28;20491;-61
2021/12/16 14:10:11;;;;;;;15.38;9.55;;;9.40;99.90;;;;;;5052231;28;20078;-61
2021/12/16 14:18:08;;;;;;;16.98;9.30;;;9.40;99.90;;;;;;5040515;28;19915;-61
2021/12/16 14:24:13;;;;;;;15.82;8.30;;;9.40;99.90;;;;;;5054686;28;20047;-61
2021/12/16 14:26:41;;;;;;;31.27;12.13;;;9.40;99.90;;;;;;5048516;28;20045;-61
2021/12/16 14:35:00;;;;;;;13.65;7.53;;;10.60;99.90;;;;;;5044231;28;20032;-60
2021/12/16 14:40:13;;;;;;;13.48;6.75;;;10.10;99.90;;;;;;5073871;22;20053;-68
2021/12/16 14:42:48;;;;;;;15.80;7.10;;;9.90;99.90;;;;;;5014678;28;20026;-68
2021/12/16 14:45:37;;;;;;;13.87;7.20;;;9.80;99.90;;;;;;5015534;28;20373;-68
2021/12/16 14:50:50;;;;;;;15.27;7.78;;;9.80;99.90;;;;;;5021960;22;20026;-63
2021/12/16 14:53:36;;;;;;;17.98;8.60;;;10.50;99.90;;;;;;4974858;28;20172;-62
2021/12/16 14:56:12;;;;;;;14.70;7.85;;;11.30;99.90;;;;;;4985124;28;20023;-62
2021/12/16 14:58:41;;;;;;;14.23;9.20;;;11.80;99.90;;;;;;4986143;28;20030;-61
2021/12/16 15:01:12;;;;;;;13.52;7.68;;;11.60;99.90;;;;;;4984086;28;20030;-62
2021/12/16 15:03:41;;;;;;;17.70;7.88;;;11.10;99.90;;;;;;4985118;28;20080;-61
2021/12/16 15:06:15;;;;;;;19.25;7.80;;;10.70;99.90;;;;;;4984165;28;20176;-61
2021/12/16 15:09:11;;;;;;;13.45;8.63;;;10.50;99.90;;;;;;4987065;28;20029;-62
2021/12/16 15:12:09;;;;;;;13.40;8.13;;;10.70;99.90;;;;;;4988329;28;20022;-61
2021/12/16 15:35:30;;;;;;;14.25;8.82;;;9.50;99.90;;;;;;4987774;28;20037;-61
2021/12/16 15:39:13;;;;;;;;;;;9.40;99.90;;;;;;4987525;28;20137;-61
2021/12/16 15:44:21;;;;;;;13.85;8.15;;;9.40;99.90;;;;;;4987741;28;20022;-60
2021/12/16 15:46:49;;;;;;;14.13;8.35;;;9.40;99.90;;;;;;4989017;28;20026;-61
2021/12/16 15:49:15;;;;;;;10.75;6.55;;;9.30;99.90;;;;;;4989000;28;20026;-61
2021/12/16 15:51:41;;;;;;;;;;;9.30;99.90;;;;;;4983033;28;20042;-61
2021/12/16 15:54:10;;;;;;;10.07;6.47;;;9.30;99.90;;;;;;4984842;28;19961;-61
2021/12/16 15:56:39;;;;;;;8.57;4.88;;;9.30;99.90;;;;;;4985017;28;20029;-61
2021/12/16 15:59:12;;;;;;;12.48;6.82;;;9.30;99.90;;;;;;4986717;28;20080;-61
2021/12/16 16:01:44;;;;;;;11.45;6.05;;;9.20;99.90;;;;;;4987545;28;20586;-61
2021/12/16 16:04:13;;;;;;;13.70;7.43;;;9.20;99.90;;;;;;4986356;28;20605;-61
2021/12/16 16:06:45;;;;;;;11.30;6.50;;;9.20;99.90;;;;;;4986901;28;20439;-61
2021/12/16 16:09:12;;;;;;;9.75;6.55;;;9.20;99.90;;;;;;4985819;28;20084;-60
2021/12/16 16:11:45;;;;;;;13.25;6.88;;;9.20;99.90;;;;;;4987101;28;20121;-62
2021/12/16 16:14:11;;;;;;;15.55;8.50;;;9.20;99.90;;;;;;4986173;28;20487;-61
2021/12/16 16:16:47;;;;;;;13.00;8.88;;;9.20;99.90;;;;;;4987473;28;20525;-60
2021/12/16 16:19:17;;;;;;;13.02;8.35;;;9.20;99.90;;;;;;4985411;28;20108;-61
2021/12/16 16:21:50;;;;;;;14.63;7.43;;;9.20;99.90;;;;;;4986857;28;20493;-60
2021/12/16 16:24:30;;;;;;;13.85;8.82;;;9.20;99.90;;;;;;4987463;28;20046;-61
2021/12/16 16:26:57;;;;;;;14.43;7.50;;;9.20;99.90;;;;;;4986141;28;20487;-60
2021/12/16 16:29:27;;;;;;;11.88;7.53;;;9.20;99.90;;;;;;4982965;28;20081;-60
2021/12/16 16:31:53;;;;;;;14.43;7.22;;;9.10;99.90;;;;;;4985167;28;20479;-60
2021/12/16 16:34:23;;;;;;;13.07;7.75;;;9.20;99.90;;;;;;4984405;28;20022;-62
2021/12/16 16:36:57;;;;;;;12.20;7.53;;;9.10;99.90;;;;;;4984569;28;20309;-62
2021/12/16 16:39:27;;;;;;;12.68;8.45;;;9.10;99.90;;;;;;4987131;28;20113;-62
2021/12/16 16:42:03;;;;;;;13.95;7.97;;;9.20;99.90;;;;;;4986488;28;20026;-61
2021/12/16 16:44:30;;;;;;;13.23;7.70;;;9.20;99.90;;;;;;4982779;28;20553;-62
2021/12/16 16:47:17;;;;;;;14.05;8.77;;;9.10;99.90;;;;;;4983301;28;20089;-60
2021/12/16 16:49:49;;;;;;;12.75;8.63;;;9.10;99.90;;;;;;4987193;28;20030;-61
2021/12/16 16:52:40;;;;;;;15.77;9.65;;;9.10;99.90;;;;;;4987035;28;20035;-61
2021/12/16 16:55:23;;;;;;;13.82;8.80;;;9.10;99.90;;;;;;4979089;28;20034;-62
2021/12/16 16:57:49;;;;;;;19.50;8.70;;;9.10;99.90;;;;;;4986686;28;20062;-61